Dawn, TX (79025)

2:03 PM CDT on March 27, 2017 (GMT -0500)
Dawn | | Change Station

Elev 3806 ft 34.91 °N, 102.20 °W | Updated 52 seconds ago

Clear
Clear
68.9 °F
Feels Like 68.9 °F
N
4.0
Wind Variable Wind from South

Today
High -- | Low -- °F
--% Chance of Precip.
Yesterday
High -- | Low -- °F
Precip. -- in
Pressure 29.97 in
Visibility 10.0 miles
Clouds Clear
Dew Point 38 °F
Humidity 32%
Rainfall 0.00 in
Snow Depth Not available.
7:42 AM 8:06 PM
Waning Crescent, 0% visible
METAR KHRX 271855Z AUTO 22004G16KT 10SM CLR 20/02 A2997 RMK AO2 T01960020
Pressure 29.97 in
Visibility 10.0 miles
Clouds Clear
Dew Point 38 °F
Humidity 32%
Rainfall 0.00 in
Snow Depth Not available.
7:42 AM 8:06 PM
Waning Crescent, 0% visible
METAR KHRX 271855Z AUTO 22004G16KT 10SM CLR 20/02 A2997 RMK AO2 T01960020

Get Severe Weather Alerts

Thanks for signing up!

Be on the lookout for a verification email in your inbox.

You'll start receiving the daily forecast at 8 AM.

×

10-Day Weather Forecast

Almanac

Astronomy

Mar. 27, 2017 Rise Set
Actual Time
Civil Twilight
Nautical Twilight
Astronomical Twilight
Moon
Length of Visible Light
Length of Day
Tomorrow will be .
, % of the Moon is Illuminated

Today's Extremes

State Highs State Lows

Community

WunderPhotos

Upload Photos

1,962,540 photos uploaded!

WunderBlog® & News

Nearby

Air Quality

  Air Quality AQ Index Pollutant
Not available.

Snow Depth

Station Depth Elevation

Earthquake Activity

City Distance Mag. Time & Date
Minimum magnitude displayed is 2.5.

Earthquake Activity

City Distance Mag. Time & Date
Minimum magnitude displayed is 2.5.

Coastal Water Temperatures

Place Temperature

Stations

Nearby Weather Stations

Station Location Temp. Windchill Dew Point Humidity Wind Precip. Elev Updated Type
                   

Watches & Warnings

There are currently no watches in effect.